createdAt,value
2022-12-23T00:01:32.746Z,77.30
2022-12-23T00:03:36.078Z,72.70
2022-12-23T00:05:39.360Z,72.17
2022-12-23T00:07:41.565Z,71.87
2022-12-23T00:09:45.532Z,73.10
2022-12-23T00:12:06.467Z,73.20
2022-12-23T00:14:47.087Z,67.90
2022-12-23T00:16:50.950Z,66.73
2022-12-23T00:18:54.457Z,65.17
2022-12-23T00:21:08.841Z,66.83
2022-12-23T00:23:11.484Z,67.87
2022-12-23T00:25:17.047Z,65.70
2022-12-23T00:27:19.073Z,68.57
2022-12-23T00:29:21.338Z,89.57
2022-12-23T00:31:23.548Z,91.37
2022-12-23T00:33:30.132Z,80.03
2022-12-23T00:35:32.635Z,75.67
2022-12-23T00:37:34.918Z,78.57
2022-12-23T00:39:56.970Z,86.47
2022-12-23T00:42:21.214Z,78.23
2022-12-23T00:44:24.025Z,74.17
2022-12-23T00:46:26.640Z,76.43
2022-12-23T00:48:46.901Z,72.43
2022-12-23T00:50:52.559Z,68.50
2022-12-23T00:52:54.718Z,81.60
2022-12-23T00:54:56.934Z,83.87
2022-12-23T00:57:02.277Z,79.80
2022-12-23T00:59:04.355Z,78.07
2022-12-23T01:01:26.136Z,77.53
2022-12-23T01:03:47.586Z,76.43
2022-12-23T01:05:49.547Z,76.13
2022-12-23T01:07:51.515Z,82.47
2022-12-23T01:09:53.805Z,80.60
2022-12-23T01:11:56.233Z,83.57
2022-12-23T01:13:59.069Z,79.67
2022-12-23T01:16:09.347Z,75.20
2022-12-23T01:18:14.334Z,75.37
2022-12-23T01:20:16.705Z,74.03
2022-12-23T01:22:18.862Z,75.10
2022-12-23T01:24:20.921Z,69.77
2022-12-23T01:26:23.183Z,67.47
2022-12-23T01:28:25.793Z,62.20
2022-12-23T01:30:28.046Z,58.53
2022-12-23T01:32:30.294Z,53.73
2022-12-23T01:34:36.755Z,62.87
2022-12-23T01:36:39.832Z,57.50
2022-12-23T01:38:42.167Z,57.60
2022-12-23T01:40:45.666Z,53.40
2022-12-23T01:42:47.956Z,57.87
2022-12-23T01:44:56.004Z,52.13
2022-12-23T01:46:58.224Z,57.37
2022-12-23T01:49:00.238Z,58.27
2022-12-23T01:51:28.104Z,56.80
2022-12-23T01:53:33.399Z,57.83
2022-12-23T01:55:44.898Z,57.43
2022-12-23T01:57:50.418Z,62.23
2022-12-23T02:00:11.629Z,61.73
2022-12-23T02:02:32.333Z,61.97
2022-12-23T02:04:34.659Z,61.27
2022-12-23T02:07:01.283Z,61.13
2022-12-23T02:09:19.245Z,60.00
2022-12-23T02:11:44.344Z,60.97
2022-12-23T02:14:31.283Z,62.70
2022-12-23T02:16:40.637Z,62.83
2022-12-23T02:18:53.947Z,60.17
2022-12-23T02:21:02.043Z,59.40
2022-12-23T02:23:31.899Z,59.93
2022-12-23T02:26:06.021Z,60.50
2022-12-23T02:28:43.939Z,63.17
2022-12-23T02:30:57.352Z,62.83
2022-12-23T02:33:15.597Z,59.80
2022-12-23T02:35:27.021Z,58.73
2022-12-23T02:37:52.759Z,57.73
2022-12-23T02:40:12.980Z,57.97
2022-12-23T02:42:20.773Z,57.60
2022-12-23T02:44:55.280Z,60.20
2022-12-23T02:47:13.263Z,59.63
2022-12-23T02:49:30.797Z,59.83
2022-12-23T02:51:38.484Z,62.60
2022-12-23T02:53:50.190Z,59.73
2022-12-23T02:55:56.315Z,59.57
2022-12-23T02:58:03.218Z,53.13
2022-12-23T03:00:07.158Z,49.27
2022-12-23T03:02:09.499Z,50.40
2022-12-23T03:04:11.900Z,43.50
2022-12-23T03:06:21.846Z,41.50
2022-12-23T03:08:34.906Z,46.67
2022-12-23T03:10:58.328Z,40.97
2022-12-23T03:13:09.734Z,44.30
2022-12-23T03:15:14.742Z,42.10
2022-12-23T03:17:38.329Z,40.03
2022-12-23T03:19:55.823Z,40.70
2022-12-23T03:22:20.749Z,39.73
2022-12-23T03:24:37.849Z,39.33
2022-12-23T03:26:49.845Z,37.63
2022-12-23T03:29:02.229Z,35.10
2022-12-23T03:31:11.225Z,37.97
2022-12-23T03:33:22.555Z,39.03
2022-12-23T03:35:34.423Z,34.50
2022-12-23T03:37:41.997Z,39.17
2022-12-23T03:39:54.497Z,33.27
2022-12-23T03:42:10.980Z,30.77
2022-12-23T03:44:36.316Z,31.60
2022-12-23T03:46:47.457Z,31.03
2022-12-23T03:48:53.916Z,27.57
2022-12-23T03:51:04.527Z,29.93
2022-12-23T03:53:21.722Z,28.43
2022-12-23T03:55:30.722Z,30.50
2022-12-23T03:58:03.370Z,33.07
2022-12-23T04:00:06.810Z,37.23
2022-12-23T04:02:19.357Z,38.23
2022-12-23T04:04:32.055Z,41.77
2022-12-23T04:07:05.033Z,41.13
2022-12-23T04:09:08.648Z,40.37
2022-12-23T04:11:11.425Z,46.00
2022-12-23T04:13:13.731Z,41.80
2022-12-23T04:15:21.458Z,40.87
2022-12-23T04:17:23.817Z,42.73
2022-12-23T04:19:26.268Z,43.40
2022-12-23T04:21:28.811Z,44.63
2022-12-23T04:23:33.545Z,43.23
2022-12-23T04:25:35.683Z,42.87
2022-12-23T04:27:38.115Z,43.83
2022-12-23T04:29:40.942Z,47.37
2022-12-23T04:31:43.213Z,46.93
2022-12-23T04:33:45.699Z,49.93
2022-12-23T04:35:48.050Z,48.43
2022-12-23T04:37:50.224Z,48.97
2022-12-23T04:39:52.316Z,56.60
2022-12-23T04:41:54.612Z,59.67
2022-12-23T04:43:56.568Z,57.47
2022-12-23T04:45:58.780Z,61.33
2022-12-23T04:48:00.664Z,57.23
2022-12-23T04:50:02.948Z,57.40
2022-12-23T04:52:05.073Z,57.53
2022-12-23T04:54:07.356Z,52.93
2022-12-23T04:56:09.271Z,53.77
2022-12-23T04:58:11.271Z,50.43
2022-12-23T05:00:14.221Z,46.77
2022-12-23T05:02:16.529Z,43.07
2022-12-23T05:04:18.848Z,43.43
2022-12-23T05:06:20.915Z,46.73
2022-12-23T05:08:23.014Z,48.53
2022-12-23T05:10:25.071Z,46.33
2022-12-23T05:12:28.339Z,48.60
2022-12-23T05:14:30.404Z,49.77
2022-12-23T05:16:32.646Z,62.73
2022-12-23T05:18:34.836Z,73.03
2022-12-23T05:20:36.887Z,72.50
2022-12-23T05:22:39.091Z,85.70
2022-12-23T05:24:41.213Z,160.87
2022-12-23T05:26:47.690Z,101.90
2022-12-23T05:28:50.798Z,82.87
2022-12-23T05:31:07.128Z,60.80
2022-12-23T05:33:11.830Z,57.23
2022-12-23T05:35:13.851Z,54.93
2022-12-23T05:37:15.878Z,51.67
2022-12-23T05:39:18.311Z,53.00
2022-12-23T05:41:20.250Z,56.83
2022-12-23T05:43:22.644Z,78.87
2022-12-23T05:45:26.641Z,82.67
2022-12-23T05:47:29.201Z,81.03
2022-12-23T05:49:31.353Z,79.13
2022-12-23T05:51:33.683Z,58.20
2022-12-23T05:53:35.599Z,50.53
2022-12-23T05:55:37.688Z,49.37
2022-12-23T05:57:39.739Z,43.87
2022-12-23T05:59:43.113Z,48.40
2022-12-23T06:01:45.194Z,55.67
2022-12-23T06:03:47.561Z,56.60
2022-12-23T06:05:52.836Z,56.20
2022-12-23T06:07:54.917Z,54.80
2022-12-23T06:09:57.131Z,59.07
2022-12-23T06:11:59.278Z,54.40
2022-12-23T06:14:02.801Z,57.30
2022-12-23T06:16:04.984Z,65.67
2022-12-23T06:18:07.105Z,68.70
2022-12-23T06:20:16.166Z,64.23
2022-12-23T06:22:23.562Z,67.67
2022-12-23T06:24:25.521Z,85.03
2022-12-23T06:26:30.532Z,95.77
2022-12-23T06:28:32.528Z,87.40
2022-12-23T06:30:39.591Z,96.50
2022-12-23T06:32:41.831Z,99.20
2022-12-23T06:34:43.912Z,93.47
2022-12-23T06:36:46.196Z,85.17
2022-12-23T06:38:48.497Z,71.37
2022-12-23T06:40:50.541Z,67.17
2022-12-23T06:42:55.600Z,61.97
2022-12-23T06:44:57.603Z,82.37
2022-12-23T06:46:59.756Z,87.47
2022-12-23T06:49:04.996Z,75.37
2022-12-23T06:51:12.868Z,69.93
2022-12-23T06:53:14.981Z,70.07
2022-12-23T06:55:17.501Z,56.70
2022-12-23T06:57:19.945Z,56.50
2022-12-23T06:59:22.062Z,53.40
2022-12-23T07:01:24.068Z,53.03
2022-12-23T07:03:26.463Z,42.93
2022-12-23T07:05:36.503Z,42.23
2022-12-23T07:07:39.511Z,43.20
2022-12-23T07:09:41.567Z,42.53
2022-12-23T07:11:43.870Z,42.30
2022-12-23T07:13:47.132Z,40.60
2022-12-23T07:15:49.933Z,34.77
2022-12-23T07:17:52.019Z,33.97
2022-12-23T07:19:54.266Z,38.50
2022-12-23T07:21:56.354Z,35.27
2022-12-23T07:23:58.842Z,36.00
2022-12-23T07:26:01.105Z,35.57
2022-12-23T07:28:03.405Z,34.43
2022-12-23T07:30:06.127Z,34.50
2022-12-23T07:32:08.666Z,36.07
2022-12-23T07:34:10.665Z,41.20
2022-12-23T07:36:13.884Z,39.50
2022-12-23T07:38:16.024Z,36.73
2022-12-23T07:40:18.480Z,38.27
2022-12-23T07:44:42.534Z,44.93
2022-12-23T07:46:44.697Z,44.13
2022-12-23T07:48:46.936Z,43.53
2022-12-23T07:50:51.738Z,39.53
2022-12-23T07:52:54.874Z,36.30
2022-12-23T07:54:56.884Z,37.27
2022-12-23T07:56:59.277Z,38.20
2022-12-23T07:59:01.344Z,37.30
2022-12-23T08:01:06.352Z,35.63
2022-12-23T08:03:10.167Z,35.90
2022-12-23T08:05:13.615Z,38.17
2022-12-23T08:07:15.708Z,40.23
2022-12-23T08:09:17.936Z,38.40
2022-12-23T08:11:20.327Z,37.17
2022-12-23T08:13:22.417Z,41.40
2022-12-23T08:15:24.685Z,46.20
2022-12-23T08:17:31.609Z,53.07
2022-12-23T08:19:34.332Z,50.93
2022-12-23T08:21:36.533Z,52.27
2022-12-23T08:23:41.304Z,46.70
2022-12-23T08:25:43.453Z,44.27
2022-12-23T08:27:45.594Z,42.00
2022-12-23T08:29:47.745Z,40.00
2022-12-23T08:31:50.664Z,38.70
2022-12-23T08:33:55.344Z,37.77
2022-12-23T08:35:57.516Z,36.33
2022-12-23T08:37:59.959Z,39.83
2022-12-23T08:40:02.062Z,38.83
2022-12-23T08:42:04.353Z,38.90
2022-12-23T08:44:06.754Z,43.77
2022-12-23T08:46:10.318Z,43.83
2022-12-23T08:48:13.882Z,51.10
2022-12-23T08:50:17.715Z,43.10
2022-12-23T08:52:20.059Z,41.90
2022-12-23T08:54:23.953Z,37.50
2022-12-23T08:56:28.810Z,37.53
2022-12-23T08:58:31.744Z,40.17
2022-12-23T09:00:33.832Z,41.57
2022-12-23T09:02:36.269Z,38.20
2022-12-23T09:04:38.521Z,40.70
2022-12-23T09:06:42.615Z,38.97
2022-12-23T09:08:45.042Z,41.37
2022-12-23T09:10:47.062Z,39.43
2022-12-23T09:12:50.315Z,45.37
2022-12-23T09:14:52.638Z,59.07
2022-12-23T09:16:54.934Z,62.40
2022-12-23T09:18:57.691Z,66.67
2022-12-23T09:21:01.946Z,61.90
2022-12-23T09:23:05.288Z,52.20
2022-12-23T09:25:07.757Z,48.67
2022-12-23T09:27:10.235Z,54.37
2022-12-23T09:29:12.279Z,54.70
2022-12-23T09:31:15.071Z,53.93
2022-12-23T09:33:17.580Z,54.10
2022-12-23T09:35:20.076Z,60.80
2022-12-23T09:37:22.347Z,55.40
2022-12-23T09:39:26.583Z,55.27
2022-12-23T09:42:03.760Z,58.63
2022-12-23T09:44:31.656Z,60.37
2022-12-23T09:46:34.752Z,61.47
2022-12-23T09:48:45.757Z,70.40
2022-12-23T09:50:48.442Z,81.93
2022-12-23T09:53:04.563Z,75.50
2022-12-23T09:55:11.519Z,65.03
2022-12-23T09:57:23.474Z,57.93
2022-12-23T09:59:45.835Z,56.80
2022-12-23T10:02:19.362Z,47.80
2022-12-23T10:04:45.371Z,47.87
2022-12-23T10:06:56.350Z,49.73
2022-12-23T10:09:04.905Z,48.47
2022-12-23T10:11:15.851Z,49.50
2022-12-23T10:13:39.599Z,58.17
2022-12-23T10:15:48.573Z,55.80
2022-12-23T10:17:55.680Z,48.80
2022-12-23T10:20:02.621Z,54.73
2022-12-23T10:22:10.590Z,56.70
2022-12-23T10:24:47.414Z,51.93
2022-12-23T10:26:52.009Z,49.80
2022-12-23T10:29:10.276Z,52.70
2022-12-23T10:31:42.606Z,47.67
2022-12-23T10:34:00.394Z,41.43
2022-12-23T10:36:28.885Z,39.70
2022-12-23T10:38:59.270Z,36.43
2022-12-23T10:41:09.433Z,40.93
2022-12-23T10:43:30.476Z,46.37
2022-12-23T10:45:41.688Z,48.23
2022-12-23T10:48:05.113Z,73.80
2022-12-23T10:54:33.388Z,151.90
2022-12-23T10:56:35.794Z,158.63
2022-12-23T10:58:42.499Z,152.90
2022-12-23T11:01:15.105Z,136.77
2022-12-23T11:03:36.674Z,94.97
2022-12-23T11:05:39.095Z,96.53
2022-12-23T11:07:45.707Z,102.97
2022-12-23T11:09:54.397Z,113.20
2022-12-23T11:12:02.346Z,99.47
2022-12-23T11:14:04.520Z,87.20
2022-12-23T11:16:28.058Z,132.23
2022-12-23T11:18:30.111Z,174.33
2022-12-23T11:20:33.737Z,112.07
2022-12-23T11:22:35.726Z,77.83
2022-12-23T11:24:43.158Z,63.97
2022-12-23T11:26:59.723Z,55.90
2022-12-23T11:29:17.484Z,38.03
2022-12-23T11:31:32.631Z,35.53
2022-12-23T11:33:38.755Z,32.53
2022-12-23T11:35:41.227Z,29.10
2022-12-23T11:37:43.917Z,27.33
2022-12-23T11:39:47.107Z,25.70
2022-12-23T11:41:53.325Z,29.33
2022-12-23T11:44:49.339Z,28.53
2022-12-23T11:46:52.506Z,23.43
2022-12-23T11:49:19.905Z,25.23
2022-12-23T11:51:26.875Z,24.50
2022-12-23T11:53:29.264Z,27.50
2022-12-23T11:55:33.190Z,28.20
2022-12-23T11:57:49.567Z,33.53
2022-12-23T11:59:58.265Z,34.07
2022-12-23T12:02:30.620Z,29.60
2022-12-23T12:04:36.115Z,26.40
2022-12-23T12:06:48.423Z,24.93
2022-12-23T12:08:57.434Z,23.40
2022-12-23T12:11:07.860Z,27.33
2022-12-23T12:13:36.636Z,24.47
2022-12-23T12:15:50.003Z,25.17
2022-12-23T12:17:55.524Z,26.37
2022-12-23T12:20:00.494Z,26.80
2022-12-23T12:22:06.307Z,31.57
2022-12-23T12:24:19.631Z,26.77
2022-12-23T12:26:30.355Z,25.00
2022-12-23T12:28:40.500Z,21.20
2022-12-23T12:30:50.588Z,22.43
2022-12-23T12:32:59.497Z,20.43
2022-12-23T12:35:25.897Z,20.30
2022-12-23T12:37:50.640Z,20.47
2022-12-23T12:40:01.791Z,23.07
2022-12-23T12:42:16.097Z,21.73
2022-12-23T12:44:33.190Z,33.70
2022-12-23T12:46:44.074Z,31.90
2022-12-23T12:49:06.512Z,25.90
2022-12-23T12:51:26.735Z,19.00
2022-12-23T12:53:32.152Z,22.57
2022-12-23T12:55:40.043Z,19.43
2022-12-23T12:57:42.219Z,19.47
2022-12-23T12:59:45.447Z,22.30
2022-12-23T13:01:50.576Z,45.20
2022-12-23T13:04:28.470Z,23.73
2022-12-23T13:07:08.858Z,19.53
2022-12-23T13:09:42.103Z,22.60
2022-12-23T13:11:58.053Z,18.53
2022-12-23T13:14:20.245Z,16.57
2022-12-23T13:16:50.121Z,17.53
2022-12-23T13:19:14.049Z,15.90
2022-12-23T13:21:53.248Z,13.90
2022-12-23T13:24:04.202Z,13.37
2022-12-23T13:26:45.401Z,12.10
2022-12-23T13:28:51.469Z,10.93
2022-12-23T13:31:15.818Z,11.43
2022-12-23T13:33:44.077Z,9.77
2022-12-23T13:36:06.050Z,10.27
2022-12-23T13:38:12.123Z,11.07
2022-12-23T13:40:20.262Z,10.57
2022-12-23T13:42:30.421Z,10.57
2022-12-23T13:44:35.654Z,8.80
2022-12-23T13:46:52.175Z,8.67
2022-12-23T13:49:12.156Z,7.80
2022-12-23T13:51:24.016Z,8.82
2022-12-23T13:53:55.292Z,7.57
2022-12-23T13:56:30.155Z,7.70
2022-12-23T13:58:33.863Z,7.60
2022-12-23T14:00:36.020Z,7.80
2022-12-23T14:02:38.247Z,7.17
2022-12-23T14:05:00.187Z,8.23
2022-12-23T14:07:19.247Z,8.40
2022-12-23T14:10:23.203Z,7.87
2022-12-23T14:12:31.343Z,8.60
2022-12-23T14:14:33.411Z,6.97
2022-12-23T14:16:40.805Z,7.40
2022-12-23T14:18:54.297Z,10.10
2022-12-23T14:21:20.406Z,17.45
2022-12-23T14:24:24.128Z,14.00
2022-12-23T14:26:38.156Z,10.35
2022-12-23T14:29:05.529Z,8.35
2022-12-23T14:31:36.695Z,7.03
2022-12-23T14:33:39.547Z,6.80
2022-12-23T14:35:42.918Z,6.67
2022-12-23T14:38:14.207Z,6.93
2022-12-23T14:40:38.126Z,7.57
2022-12-23T14:42:43.217Z,8.00
2022-12-23T14:44:49.863Z,8.63
2022-12-23T14:46:54.436Z,10.07
2022-12-23T14:49:22.534Z,18.60
2022-12-23T14:51:45.257Z,22.53
2022-12-23T14:53:53.894Z,23.33
2022-12-23T14:56:16.473Z,32.53
2022-12-23T14:58:46.590Z,28.27
2022-12-23T15:01:02.681Z,31.63
2022-12-23T15:03:04.987Z,34.10
2022-12-23T15:05:07.838Z,27.63
2022-12-23T15:07:42.678Z,25.55
2022-12-23T15:09:58.675Z,25.87
2022-12-23T15:12:12.935Z,28.77
2022-12-23T15:14:31.595Z,28.87
2022-12-23T15:16:36.927Z,29.93
2022-12-23T15:18:52.805Z,29.53
2022-12-23T15:21:02.801Z,26.43
2022-12-23T15:23:17.965Z,25.53
2022-12-23T15:25:30.102Z,25.13
2022-12-23T15:27:36.543Z,24.37
2022-12-23T15:29:44.006Z,29.10
2022-12-23T15:31:50.699Z,28.33
2022-12-23T15:34:03.446Z,31.10
2022-12-23T15:36:07.167Z,30.70
2022-12-23T15:38:16.387Z,28.53
2022-12-23T15:40:27.752Z,31.83
2022-12-23T15:42:38.599Z,28.13
2022-12-23T15:44:40.869Z,29.03
2022-12-23T15:46:43.872Z,26.30
2022-12-23T15:48:47.379Z,25.37
2022-12-23T15:50:53.525Z,24.47
2022-12-23T15:53:00.163Z,24.50
2022-12-23T15:55:14.448Z,24.27
2022-12-23T15:57:19.672Z,25.77
2022-12-23T15:59:25.957Z,27.13
2022-12-23T16:01:36.475Z,27.83
2022-12-23T16:03:49.287Z,28.60
2022-12-23T16:05:51.710Z,27.90
2022-12-23T16:08:26.736Z,26.53
2022-12-23T16:10:31.621Z,26.90
2022-12-23T16:12:37.694Z,25.50
2022-12-23T16:14:41.619Z,25.57
2022-12-23T16:16:44.317Z,25.83
2022-12-23T16:18:49.472Z,24.47
2022-12-23T16:21:01.520Z,23.13
2022-12-23T16:23:03.936Z,21.17
2022-12-23T16:25:16.655Z,20.57
2022-12-23T16:27:25.476Z,18.67
2022-12-23T16:29:27.585Z,19.93
2022-12-23T16:31:29.982Z,19.27
2022-12-23T16:33:39.941Z,24.73
2022-12-23T16:35:43.576Z,21.43
2022-12-23T16:37:50.905Z,20.70
2022-12-23T16:39:53.573Z,15.93
2022-12-23T16:41:55.658Z,14.47
2022-12-23T16:43:58.331Z,15.77
2022-12-23T16:46:00.893Z,13.60
2022-12-23T16:48:10.439Z,14.53
2022-12-23T16:50:15.149Z,13.53
2022-12-23T16:52:17.363Z,13.53
2022-12-23T16:54:20.453Z,14.13
2022-12-23T16:56:28.500Z,16.67
2022-12-23T16:58:30.921Z,16.80
2022-12-23T17:00:33.833Z,15.77
2022-12-23T17:02:36.533Z,15.30
2022-12-23T17:04:39.921Z,13.57
2022-12-23T17:06:42.506Z,15.37
2022-12-23T17:08:44.837Z,13.33
2022-12-23T17:10:47.310Z,13.30
2022-12-23T17:12:50.556Z,14.93
2022-12-23T17:14:52.676Z,13.83
2022-12-23T17:16:54.804Z,12.93
2022-12-23T17:18:57.233Z,14.37
2022-12-23T17:20:59.394Z,13.90
2022-12-23T17:23:01.672Z,14.47
2022-12-23T17:25:29.527Z,13.93
2022-12-23T17:27:31.821Z,14.17
2022-12-23T17:29:34.363Z,14.83
2022-12-23T17:31:36.801Z,14.57
2022-12-23T17:33:42.064Z,13.53
2022-12-23T17:35:44.423Z,14.43
2022-12-23T17:37:46.796Z,15.37
2022-12-23T17:39:49.504Z,16.20
2022-12-23T17:41:51.795Z,14.23
2022-12-23T17:43:54.769Z,14.77
2022-12-23T17:45:57.007Z,14.90
2022-12-23T17:48:00.713Z,16.33
2022-12-23T17:50:03.241Z,16.47
2022-12-23T17:52:07.167Z,19.43
2022-12-23T17:54:20.943Z,18.87
2022-12-23T17:56:24.777Z,21.43
2022-12-23T17:58:27.378Z,22.27
2022-12-23T18:00:34.415Z,25.67
2022-12-23T18:02:38.800Z,27.00
2022-12-23T18:04:41.291Z,33.73
2022-12-23T18:06:45.637Z,41.20
2022-12-23T18:08:48.136Z,38.97
2022-12-23T18:10:50.475Z,36.83
2022-12-23T18:13:17.191Z,35.67
2022-12-23T18:15:46.097Z,30.37
2022-12-23T18:17:48.941Z,24.33
2022-12-23T18:19:51.289Z,21.27
2022-12-23T18:21:53.889Z,18.63
2022-12-23T18:23:59.759Z,17.13
2022-12-23T18:26:02.137Z,14.07
2022-12-23T18:28:04.735Z,12.97
2022-12-23T18:30:07.476Z,12.67
2022-12-23T18:32:23.777Z,11.90
2022-12-23T18:34:26.709Z,12.20
2022-12-23T18:36:31.330Z,12.90
2022-12-23T18:38:33.492Z,14.03
2022-12-23T18:40:35.725Z,12.97
2022-12-23T18:42:37.683Z,12.50
2022-12-23T18:44:41.207Z,11.10
2022-12-23T18:46:43.856Z,11.57
2022-12-23T18:48:46.545Z,10.63
2022-12-23T18:50:54.791Z,11.03
2022-12-23T18:52:58.720Z,9.77
2022-12-23T18:55:01.834Z,11.47
2022-12-23T18:57:08.299Z,14.43
2022-12-23T18:59:29.151Z,19.63
2022-12-23T19:01:34.634Z,22.30
2022-12-23T19:03:43.571Z,15.00
2022-12-23T19:05:47.478Z,15.20
2022-12-23T19:07:50.368Z,21.50
2022-12-23T19:09:52.682Z,20.77
2022-12-23T19:12:23.823Z,17.17
2022-12-23T19:14:26.092Z,13.90
2022-12-23T19:16:34.546Z,16.50
2022-12-23T19:18:48.958Z,16.90
2022-12-23T19:21:06.310Z,15.80
2022-12-23T19:23:08.711Z,15.40
2022-12-23T19:30:33.435Z,12.73
2022-12-23T19:32:36.922Z,14.93
2022-12-23T19:34:39.074Z,13.65
2022-12-23T19:36:41.219Z,11.57
2022-12-23T19:38:44.031Z,13.73
2022-12-23T19:40:46.153Z,14.43
2022-12-23T19:42:48.253Z,15.50
2022-12-23T19:44:50.512Z,17.67
2022-12-23T19:46:52.625Z,16.73
2022-12-23T19:48:55.188Z,22.13
2022-12-23T19:51:05.997Z,25.50
2022-12-23T19:53:08.278Z,48.13
2022-12-23T19:55:10.942Z,31.67
2022-12-23T19:57:13.063Z,37.23
2022-12-23T19:59:15.541Z,30.47
2022-12-23T20:01:22.899Z,26.57
2022-12-23T20:03:25.309Z,23.83
2022-12-23T20:05:27.425Z,18.53
2022-12-23T20:07:29.381Z,15.07
2022-12-23T20:09:34.739Z,22.03
2022-12-23T20:11:43.211Z,16.77
2022-12-23T20:13:45.756Z,15.50
2022-12-23T20:15:50.989Z,15.50
2022-12-23T20:17:53.644Z,14.33
2022-12-23T20:19:55.763Z,13.17
2022-12-23T20:21:57.785Z,13.20
2022-12-23T20:24:00.122Z,13.13
2022-12-23T20:26:02.589Z,13.13
2022-12-23T20:28:04.866Z,13.10
2022-12-23T20:30:07.476Z,13.73
2022-12-23T20:32:09.612Z,12.13
2022-12-23T20:34:16.637Z,13.17
2022-12-23T20:36:23.876Z,13.67
2022-12-23T20:38:26.160Z,13.23
2022-12-23T20:40:28.236Z,14.97
2022-12-23T20:42:30.231Z,13.03
2022-12-23T20:44:35.649Z,14.37
2022-12-23T20:46:38.490Z,15.30
2022-12-23T20:48:41.871Z,14.93
2022-12-23T20:50:45.032Z,14.43
2022-12-23T20:52:47.689Z,16.43
2022-12-23T20:54:49.978Z,16.07
2022-12-23T20:56:52.120Z,14.87
2022-12-23T20:58:55.398Z,13.70
2022-12-23T21:01:08.889Z,13.20
2022-12-23T21:03:11.447Z,12.97
2022-12-23T21:05:13.647Z,13.53
2022-12-23T21:07:15.947Z,15.27
2022-12-23T21:09:18.370Z,15.60
2022-12-23T21:11:20.485Z,17.90
2022-12-23T21:13:22.422Z,18.40
2022-12-23T21:15:24.633Z,27.83
2022-12-23T21:17:26.823Z,32.57
2022-12-23T21:19:29.241Z,42.53
2022-12-23T21:21:32.139Z,39.00
2022-12-23T21:23:40.965Z,36.90
2022-12-23T21:25:45.157Z,101.97
2022-12-23T21:27:47.441Z,78.85
2022-12-23T21:29:49.440Z,62.60
2022-12-23T21:31:52.000Z,67.17
2022-12-23T21:33:54.987Z,77.75
2022-12-23T21:35:57.419Z,123.17
2022-12-23T21:37:59.762Z,106.70
2022-12-23T21:40:04.111Z,75.03
2022-12-23T21:42:06.791Z,88.60
2022-12-23T21:44:11.727Z,72.97
2022-12-23T21:46:16.725Z,59.90
2022-12-23T21:48:18.938Z,62.67
2022-12-23T21:50:20.824Z,57.43
2022-12-23T21:52:22.998Z,46.90
2022-12-23T21:54:25.417Z,59.25
2022-12-23T21:56:29.959Z,56.07
2022-12-23T21:58:33.918Z,49.85
2022-12-23T22:00:36.401Z,100.30
2022-12-23T22:02:38.570Z,102.60
2022-12-23T22:04:40.811Z,93.53
2022-12-23T22:06:44.500Z,68.60
2022-12-23T22:08:47.938Z,83.30
2022-12-23T22:10:50.794Z,52.27
2022-12-23T22:12:53.219Z,51.07
2022-12-23T22:14:55.665Z,68.30
2022-12-23T22:17:00.801Z,54.27
2022-12-23T22:19:04.396Z,64.57
2022-12-23T22:21:10.486Z,121.40
2022-12-23T22:23:12.439Z,112.33
2022-12-23T22:25:15.015Z,109.50
2022-12-23T22:27:17.062Z,88.57
2022-12-23T22:29:19.288Z,62.70
2022-12-23T22:31:32.465Z,52.15
2022-12-23T22:33:35.485Z,56.50
2022-12-23T22:36:02.420Z,46.58
2022-12-23T22:38:04.596Z,100.82
2022-12-23T22:40:07.764Z,94.63
2022-12-23T22:42:09.767Z,101.00
2022-12-23T22:44:13.434Z,78.53
2022-12-23T22:46:16.484Z,59.03
2022-12-23T22:48:19.163Z,60.53
2022-12-23T22:50:21.395Z,61.07
2022-12-23T22:52:23.418Z,48.77
2022-12-23T22:54:28.244Z,39.53
2022-12-23T22:56:30.615Z,40.78
2022-12-23T22:58:34.114Z,34.63
2022-12-23T23:00:36.547Z,33.70
2022-12-23T23:02:38.485Z,34.83
2022-12-23T23:04:40.571Z,34.00
2022-12-23T23:06:43.283Z,32.25
2022-12-23T23:08:45.766Z,25.23
2022-12-23T23:10:47.860Z,24.85
2022-12-23T23:12:50.098Z,24.73
2022-12-23T23:14:55.177Z,20.80
2022-12-23T23:16:59.355Z,21.73
2022-12-23T23:19:02.015Z,21.17
2022-12-23T23:21:04.060Z,20.13
2022-12-23T23:23:06.533Z,20.10
2022-12-23T23:25:09.192Z,21.47
2022-12-23T23:27:12.314Z,22.77
2022-12-23T23:29:14.871Z,21.43
2022-12-23T23:31:41.841Z,22.47
2022-12-23T23:33:39.014Z,19.93
2022-12-23T23:35:44.074Z,24.07
2022-12-23T23:37:46.710Z,30.60
2022-12-23T23:39:48.840Z,31.90
2022-12-23T23:41:53.842Z,25.57
2022-12-23T23:43:56.444Z,26.17
2022-12-23T23:46:01.373Z,29.10
2022-12-23T23:48:03.434Z,45.83
2022-12-23T23:50:06.717Z,42.17
2022-12-23T23:52:08.865Z,36.03
2022-12-23T23:54:11.061Z,44.37
2022-12-23T23:56:13.497Z,44.20
2022-12-23T23:58:15.799Z,40.43
